createdAt,value
2022-08-27T00:01:56.278Z,16.40
2022-08-27T00:04:24.242Z,16.40
2022-08-27T00:06:52.424Z,17.20
2022-08-27T00:09:26.880Z,16.40
2022-08-27T00:11:56.200Z,16.40
2022-08-27T00:14:24.352Z,16.40
2022-08-27T00:21:50.602Z,16.30
2022-08-27T00:26:48.795Z,16.30
2022-08-27T00:29:16.979Z,16.30
2022-08-27T00:36:41.666Z,16.20
2022-08-27T00:39:09.478Z,16.10
2022-08-27T00:49:18.388Z,14.50
2022-08-27T00:52:20.692Z,16.10
2022-08-27T00:54:53.084Z,16.10
2022-08-27T00:57:21.231Z,16.10
2022-08-27T01:02:21.016Z,16.00
2022-08-27T01:05:01.335Z,16.00
2022-08-27T01:07:32.157Z,15.90
2022-08-27T01:10:02.542Z,15.90
2022-08-27T01:12:33.501Z,15.90
2022-08-27T01:15:03.894Z,15.80
2022-08-27T01:17:32.158Z,15.60
2022-08-27T01:20:05.349Z,15.80
2022-08-27T01:22:51.551Z,15.70
2022-08-27T01:25:20.330Z,15.80
2022-08-27T01:27:48.534Z,15.80
2022-08-27T01:30:18.658Z,15.80
2022-08-27T01:32:47.054Z,15.90
2022-08-27T01:35:15.334Z,15.90
2022-08-27T01:37:45.313Z,15.80
2022-08-27T01:42:48.723Z,16.10
2022-08-27T01:45:28.418Z,15.70
2022-08-27T01:47:56.975Z,15.70
2022-08-27T01:50:31.976Z,15.60
2022-08-27T01:53:04.352Z,15.60
2022-08-27T01:55:32.192Z,15.60
2022-08-27T02:00:37.816Z,15.60
2022-08-27T02:03:08.697Z,15.60
2022-08-27T02:05:43.989Z,15.70
2022-08-27T02:08:16.046Z,15.60
2022-08-27T02:10:45.110Z,15.70
2022-08-27T02:13:13.486Z,15.70
2022-08-27T02:15:42.368Z,15.70
2022-08-27T02:18:11.427Z,15.70
2022-08-27T02:20:39.566Z,15.70
2022-08-27T02:25:35.082Z,15.60
2022-08-27T02:28:02.637Z,15.60
2022-08-27T02:30:32.376Z,15.60
2022-08-27T02:33:04.585Z,15.60
2022-08-27T02:35:35.378Z,15.60
2022-08-27T02:40:33.942Z,15.10
2022-08-27T02:43:04.137Z,15.60
2022-08-27T02:45:31.543Z,15.60
2022-08-27T02:50:27.151Z,15.50
2022-08-27T02:52:58.002Z,16.10
2022-08-27T02:55:28.808Z,15.50
2022-08-27T02:57:59.653Z,15.50
2022-08-27T03:00:28.908Z,15.50
2022-08-27T03:02:57.866Z,15.50
2022-08-27T03:05:25.889Z,15.50
2022-08-27T03:07:59.636Z,15.40
2022-08-27T03:10:30.016Z,15.40
2022-08-27T03:12:58.014Z,15.40
2022-08-27T03:15:26.056Z,15.40
2022-08-27T03:18:12.046Z,15.40
2022-08-27T03:20:44.779Z,15.40
2022-08-27T03:23:12.745Z,15.40
2022-08-27T03:28:22.543Z,15.40
2022-08-27T03:30:58.491Z,15.40
2022-08-27T03:33:26.662Z,15.50
2022-08-27T03:35:56.518Z,15.70
2022-08-27T03:38:29.596Z,15.50
2022-08-27T03:43:25.193Z,15.60
2022-08-27T03:48:32.107Z,15.60
2022-08-27T03:50:59.875Z,15.70
2022-08-27T03:53:29.905Z,15.70
2022-08-27T03:58:26.237Z,15.80
2022-08-27T04:05:56.516Z,15.80
2022-08-27T04:13:26.190Z,15.90
2022-08-27T04:15:55.482Z,16.00
2022-08-27T04:20:52.866Z,16.20
2022-08-27T04:23:20.983Z,16.20
2022-08-27T04:25:51.014Z,16.20
2022-08-27T04:30:50.337Z,16.20
2022-08-27T04:40:59.790Z,16.40
2022-08-27T04:48:25.902Z,17.70
2022-08-27T04:53:21.317Z,17.90
2022-08-27T04:55:52.711Z,18.50
2022-08-27T04:58:22.482Z,19.30
2022-08-27T05:00:56.158Z,20.00
2022-08-27T05:03:24.365Z,20.70
2022-08-27T05:05:53.286Z,21.40
2022-08-27T05:08:21.178Z,21.90
2022-08-27T05:10:50.881Z,22.70
2022-08-27T05:13:19.712Z,23.90
2022-08-27T05:15:48.122Z,23.80
2022-08-27T05:18:15.599Z,24.40
2022-08-27T05:20:51.189Z,25.70
2022-08-27T05:23:19.750Z,25.70
2022-08-27T05:25:49.123Z,26.30
2022-08-27T05:28:18.423Z,26.90
2022-08-27T05:30:52.335Z,26.90
2022-08-27T05:33:25.730Z,27.60
2022-08-27T05:35:54.206Z,27.50
2022-08-27T05:38:22.232Z,27.50
2022-08-27T05:40:49.873Z,27.70
2022-08-27T05:43:18.369Z,27.80
2022-08-27T05:45:49.556Z,27.80
2022-08-27T05:55:46.224Z,28.50
2022-08-27T05:58:33.136Z,29.00
2022-08-27T06:01:09.401Z,29.80
2022-08-27T06:03:38.789Z,29.70
2022-08-27T06:06:09.399Z,29.80
2022-08-27T06:08:37.995Z,29.60
2022-08-27T06:11:07.732Z,29.70
2022-08-27T06:13:36.478Z,29.70
2022-08-27T06:16:08.550Z,29.80
2022-08-27T06:18:38.548Z,29.90
2022-08-27T06:21:07.288Z,29.90
2022-08-27T06:23:36.078Z,30.00
2022-08-27T06:26:07.607Z,30.10
2022-08-27T06:28:35.694Z,30.20
2022-08-27T06:31:16.883Z,30.50
2022-08-27T06:33:45.883Z,30.50
2022-08-27T06:36:16.272Z,30.80
2022-08-27T06:43:51.687Z,31.80
2022-08-27T06:46:22.189Z,31.60
2022-08-27T06:48:56.306Z,32.30
2022-08-27T06:51:27.000Z,32.70
2022-08-27T06:53:57.014Z,33.10
2022-08-27T06:56:24.690Z,33.80
2022-08-27T06:58:55.513Z,33.80
2022-08-27T07:01:30.683Z,34.70
2022-08-27T07:04:05.842Z,34.60
2022-08-27T07:06:35.018Z,34.70
2022-08-27T07:09:05.548Z,34.50
2022-08-27T07:11:34.700Z,34.30
2022-08-27T07:14:06.637Z,33.80
2022-08-27T07:16:36.441Z,33.50
2022-08-27T07:19:07.022Z,33.80
2022-08-27T07:21:36.563Z,34.00
2022-08-27T07:24:06.617Z,34.30
2022-08-27T07:26:36.244Z,35.40
2022-08-27T07:29:05.482Z,35.40
2022-08-27T07:31:36.327Z,35.40
2022-08-27T07:34:07.279Z,35.10
2022-08-27T07:41:53.954Z,35.70
2022-08-27T07:47:04.467Z,36.20
2022-08-27T07:49:35.034Z,36.20
2022-08-27T07:56:59.321Z,36.40
2022-08-27T07:59:28.315Z,36.40
2022-08-27T08:01:58.743Z,36.60
2022-08-27T08:04:26.865Z,36.00
2022-08-27T08:09:25.133Z,37.80
2022-08-27T08:41:58.814Z,39.50
2022-08-27T08:47:24.310Z,39.70
2022-08-27T08:50:10.261Z,40.00
2022-08-27T08:55:48.339Z,39.20
2022-08-27T08:58:21.423Z,39.50
2022-08-27T09:00:54.652Z,39.40
2022-08-27T09:06:00.978Z,40.30
2022-08-27T09:08:41.661Z,40.20
2022-08-27T09:11:32.821Z,39.80
2022-08-27T09:14:04.412Z,39.90
2022-08-27T09:19:06.190Z,39.20
2022-08-27T09:21:54.440Z,38.80
2022-08-27T09:24:27.330Z,38.60
2022-08-27T09:29:28.245Z,39.10
2022-08-27T09:32:00.306Z,39.60
2022-08-27T09:34:38.422Z,39.60
2022-08-27T09:39:47.319Z,40.20
2022-08-27T09:42:49.675Z,40.20
2022-08-27T09:45:30.242Z,39.70
2022-08-27T09:48:08.130Z,39.60
2022-08-27T09:50:43.928Z,39.50
2022-08-27T09:53:32.564Z,39.40
2022-08-27T09:56:03.220Z,39.60
2022-08-27T09:58:59.288Z,39.20
2022-08-27T10:01:29.674Z,38.90
2022-08-27T10:04:12.764Z,38.80
2022-08-27T10:06:47.504Z,38.50
2022-08-27T10:09:33.374Z,38.30
2022-08-27T10:12:04.887Z,38.60
2022-08-27T10:14:43.052Z,39.40
2022-08-27T10:17:31.565Z,40.00
2022-08-27T10:20:30.150Z,40.50
2022-08-27T10:31:03.028Z,41.20
2022-08-27T10:33:46.914Z,41.80
2022-08-27T10:36:27.160Z,39.10
2022-08-27T10:39:06.520Z,39.10
2022-08-27T10:46:50.799Z,39.10
2022-08-27T10:52:26.057Z,39.10
2022-08-27T10:55:00.318Z,39.30
2022-08-27T10:57:55.263Z,39.60
2022-08-27T11:00:35.183Z,39.50
2022-08-27T11:03:13.837Z,40.30
2022-08-27T11:05:48.575Z,39.90
2022-08-27T11:10:51.868Z,38.70
2022-08-27T11:13:38.716Z,39.00
2022-08-27T11:16:26.640Z,39.00
2022-08-27T11:21:47.071Z,39.20
2022-08-27T11:26:46.616Z,39.50
2022-08-27T11:29:27.373Z,38.90
2022-08-27T11:32:15.695Z,39.20
2022-08-27T11:34:52.077Z,39.70
2022-08-27T11:37:56.827Z,39.80
2022-08-27T11:43:06.933Z,37.80
2022-08-27T11:45:40.155Z,37.90
2022-08-27T11:48:26.533Z,37.90
2022-08-27T11:51:19.038Z,38.10
2022-08-27T11:54:01.892Z,38.20
2022-08-27T11:59:13.665Z,38.00
2022-08-27T12:01:41.540Z,38.00
2022-08-27T12:04:41.929Z,37.80
2022-08-27T12:07:17.724Z,37.80
2022-08-27T12:09:57.312Z,37.60
2022-08-27T12:12:57.961Z,36.60
2022-08-27T12:16:05.548Z,36.70
2022-08-27T12:18:47.344Z,37.30
2022-08-27T12:21:29.400Z,37.40
2022-08-27T12:24:21.624Z,37.40
2022-08-27T12:26:59.118Z,36.80
2022-08-27T12:29:42.245Z,35.70
2022-08-27T12:34:56.493Z,36.30
2022-08-27T12:37:30.878Z,36.70
2022-08-27T12:40:02.522Z,36.60
2022-08-27T12:42:30.041Z,36.40
2022-08-27T12:45:00.978Z,36.40
2022-08-27T12:47:28.885Z,35.90
2022-08-27T12:50:01.651Z,35.10
2022-08-27T12:52:59.228Z,35.00
2022-08-27T12:55:44.969Z,34.60
2022-08-27T12:58:24.254Z,34.60
2022-08-27T13:01:08.372Z,34.30
2022-08-27T13:03:45.998Z,34.30
2022-08-27T13:08:58.507Z,34.10
2022-08-27T13:11:30.948Z,34.40
2022-08-27T13:14:10.342Z,34.70
2022-08-27T13:17:05.883Z,34.80
2022-08-27T13:19:44.969Z,34.90
2022-08-27T13:22:21.378Z,34.80
2022-08-27T13:24:54.032Z,34.60
2022-08-27T13:27:27.837Z,34.30
2022-08-27T13:29:56.102Z,34.20
2022-08-27T13:32:30.258Z,34.20
2022-08-27T13:34:59.755Z,33.60
2022-08-27T13:37:35.333Z,34.10
2022-08-27T13:40:03.178Z,33.90
2022-08-27T13:42:31.674Z,34.40
2022-08-27T13:45:05.682Z,33.50
2022-08-27T13:50:20.662Z,33.30
2022-08-27T13:53:11.910Z,33.30
2022-08-27T13:55:45.965Z,33.10
2022-08-27T13:58:25.821Z,33.10
2022-08-27T14:01:07.968Z,33.00
2022-08-27T14:03:46.319Z,32.80
2022-08-27T14:08:51.209Z,32.60
2022-08-27T14:11:24.051Z,32.50
2022-08-27T14:13:52.311Z,32.40
2022-08-27T14:16:24.713Z,32.40
2022-08-27T14:19:24.818Z,32.20
2022-08-27T14:21:54.832Z,32.10
2022-08-27T14:24:22.705Z,32.10
2022-08-27T14:26:55.087Z,31.90
2022-08-27T14:29:24.674Z,31.50
2022-08-27T14:31:52.409Z,31.50
2022-08-27T14:34:22.615Z,31.30
2022-08-27T14:36:54.653Z,32.00
2022-08-27T14:39:24.369Z,31.30
2022-08-27T14:41:54.600Z,31.20
2022-08-27T14:44:24.603Z,31.10
2022-08-27T14:46:53.261Z,31.00
2022-08-27T14:49:31.960Z,30.90
2022-08-27T14:51:59.606Z,30.80
2022-08-27T14:54:33.613Z,30.80
2022-08-27T14:59:32.651Z,30.60
2022-08-27T15:02:02.976Z,30.40
2022-08-27T15:04:33.078Z,30.40
2022-08-27T15:07:01.542Z,30.40
2022-08-27T15:09:29.039Z,30.30
2022-08-27T15:11:57.608Z,30.30
2022-08-27T15:14:32.159Z,30.30
2022-08-27T15:22:02.018Z,30.10
2022-08-27T15:24:39.373Z,30.20
2022-08-27T15:29:34.956Z,30.10
2022-08-27T15:32:02.893Z,30.00
2022-08-27T15:34:30.633Z,29.90
2022-08-27T15:36:58.006Z,29.90
2022-08-27T15:39:26.609Z,29.90
2022-08-27T15:42:06.214Z,29.80
2022-08-27T15:44:40.291Z,29.80
2022-08-27T15:47:08.045Z,29.80
2022-08-27T15:49:35.900Z,29.20
2022-08-27T15:52:05.375Z,29.60
2022-08-27T15:59:28.806Z,29.40
2022-08-27T16:16:46.409Z,28.90
2022-08-27T16:34:15.449Z,28.20
2022-08-27T16:39:11.187Z,28.20
2022-08-27T16:44:07.043Z,27.90
2022-08-27T16:51:48.877Z,27.70
2022-08-27T16:54:16.903Z,26.20
2022-08-27T16:56:46.339Z,27.30
2022-08-27T16:59:14.638Z,27.20
2022-08-27T17:06:54.914Z,26.70
2022-08-27T17:09:23.786Z,26.60
2022-08-27T17:19:18.927Z,25.90
2022-08-27T17:21:46.712Z,25.90
2022-08-27T17:24:15.977Z,25.80
2022-08-27T17:26:43.805Z,25.70
2022-08-27T17:29:11.413Z,25.50
2022-08-27T17:31:41.887Z,25.50
2022-08-27T17:34:16.629Z,25.30
2022-08-27T17:36:44.740Z,25.30
2022-08-27T17:39:13.378Z,25.20
2022-08-27T17:41:45.682Z,25.20
2022-08-27T17:44:30.017Z,25.10
2022-08-27T17:47:02.870Z,24.90
2022-08-27T17:49:50.530Z,24.90
2022-08-27T17:54:55.540Z,24.70
2022-08-27T18:02:37.846Z,24.40
2022-08-27T18:05:08.889Z,24.40
2022-08-27T18:07:39.862Z,24.30
2022-08-27T18:10:08.813Z,24.20
2022-08-27T18:12:36.938Z,24.20
2022-08-27T18:15:22.147Z,23.90
2022-08-27T18:17:53.254Z,23.90
2022-08-27T18:20:22.991Z,23.70
2022-08-27T18:25:21.607Z,23.10
2022-08-27T18:27:51.981Z,23.20
2022-08-27T18:30:20.360Z,23.10
2022-08-27T18:32:48.066Z,23.10
2022-08-27T18:35:25.017Z,22.90
2022-08-27T18:40:22.928Z,22.80
2022-08-27T18:45:23.260Z,22.50
2022-08-27T18:52:49.599Z,22.50
2022-08-27T18:57:47.434Z,22.30
2022-08-27T19:00:19.072Z,22.20
2022-08-27T19:02:51.919Z,22.20
2022-08-27T19:05:24.576Z,22.10
2022-08-27T19:07:52.046Z,22.10
2022-08-27T19:10:20.184Z,22.10
2022-08-27T19:12:47.933Z,22.10
2022-08-27T19:17:47.285Z,21.90
2022-08-27T19:20:17.481Z,21.80
2022-08-27T19:22:45.724Z,21.50
2022-08-27T19:27:42.099Z,21.40
2022-08-27T19:30:10.519Z,21.30
2022-08-27T19:35:06.432Z,20.20
2022-08-27T19:37:52.823Z,21.10
2022-08-27T19:40:22.447Z,21.20
2022-08-27T19:42:50.583Z,21.20
2022-08-27T19:47:51.638Z,21.50
2022-08-27T19:50:19.710Z,21.70
2022-08-27T19:57:44.797Z,21.70
2022-08-27T20:00:15.455Z,21.60
2022-08-27T20:07:51.157Z,21.20
2022-08-27T20:10:36.267Z,21.10
2022-08-27T20:17:59.863Z,21.00
2022-08-27T20:25:25.162Z,20.90
2022-08-27T20:30:22.998Z,20.90
2022-08-27T20:35:19.967Z,20.90
2022-08-27T20:40:19.286Z,20.80
2022-08-27T20:42:47.025Z,20.80
2022-08-27T20:45:15.320Z,20.80
2022-08-27T20:47:45.303Z,20.70
2022-08-27T20:50:13.864Z,20.60
2022-08-27T20:52:42.444Z,20.70
2022-08-27T21:05:19.369Z,20.10
2022-08-27T21:20:09.059Z,19.70
2022-08-27T21:25:05.708Z,19.50
2022-08-27T21:49:46.275Z,18.80
2022-08-27T21:57:14.063Z,18.60
2022-08-27T21:59:46.564Z,18.60
2022-08-27T22:42:02.209Z,17.50
2022-08-27T22:46:57.714Z,17.40
2022-08-27T23:19:05.535Z,17.10
2022-08-27T23:26:48.493Z,16.90
2022-08-27T23:29:16.259Z,16.90
